Time;durP1;ratioP1;P1;durP2;ratioP2;P2;SDS_P1;SDS_P2;PMS_P1;PMS_P2;Temp;Humidity;BMP_temperature;BMP_pressure;BME280_temperature;BME280_humidity;BME280_pressure;Samples;Min_cycle;Max_cycle;Signal;HPM_P1;HPM_P2
2021/11/16 00:02:01;;;;;;;27.57;18.30;;;6.40;99.90;;;;;;4950655;29;20699;-63
2021/11/16 00:04:30;;;;;;;27.83;18.53;;;6.40;99.90;;;;;;4948333;29;20243;-63
2021/11/16 00:06:59;;;;;;;26.87;18.23;;;6.50;99.90;;;;;;4950808;29;20651;-63
2021/11/16 00:09:27;;;;;;;25.80;18.17;;;6.40;99.90;;;;;;4950168;29;20330;-63
2021/11/16 00:11:56;;;;;;;26.90;19.13;;;6.50;99.90;;;;;;4949360;28;20278;-63
2021/11/16 00:14:24;;;;;;;27.77;18.20;;;6.40;99.90;;;;;;4949425;29;20242;-63
2021/11/16 00:16:52;;;;;;;25.87;18.00;;;6.40;99.90;;;;;;4950551;29;20239;-63
2021/11/16 00:19:21;;;;;;;26.70;17.90;;;6.40;99.90;;;;;;4950121;29;20514;-63
2021/11/16 00:21:50;;;;;;;26.97;17.67;;;6.40;99.90;;;;;;4950463;29;20235;-63
2021/11/16 00:24:32;;;;;;;25.57;17.43;;;6.50;99.90;;;;;;4948940;29;20294;-63
2021/11/16 00:27:00;;;;;;;28.27;18.77;;;6.40;99.90;;;;;;4949971;29;20746;-63
2021/11/16 00:29:28;;;;;;;30.43;19.10;;;6.40;99.90;;;;;;4948814;29;20727;-63
2021/11/16 00:31:56;;;;;;;29.17;19.43;;;6.40;99.90;;;;;;4949955;28;20603;-63
2021/11/16 00:34:25;;;;;;;27.60;18.83;;;6.40;99.90;;;;;;4949055;29;20238;-63
2021/11/16 00:36:53;;;;;;;28.03;18.67;;;6.40;99.90;;;;;;4950003;29;20249;-63
2021/11/16 00:39:22;;;;;;;28.33;19.07;;;6.50;99.90;;;;;;4949204;28;20290;-63
2021/11/16 00:41:51;;;;;;;28.70;19.63;;;6.40;99.90;;;;;;4950412;29;20259;-63
2021/11/16 00:44:19;;;;;;;26.57;18.33;;;6.40;99.90;;;;;;4948783;29;20559;-63
2021/11/16 00:46:47;;;;;;;30.13;19.63;;;6.40;99.90;;;;;;4949423;28;20251;-63
2021/11/16 00:49:15;;;;;;;30.77;19.53;;;6.40;99.90;;;;;;4950123;29;20250;-63
2021/11/16 00:51:44;;;;;;;31.53;20.10;;;6.40;99.90;;;;;;4949590;29;20246;-63
2021/11/16 00:54:12;;;;;;;27.03;18.87;;;6.40;99.90;;;;;;4948699;29;20329;-63
2021/11/16 00:56:42;;;;;;;30.20;19.67;;;6.30;99.90;;;;;;4949748;29;20239;-63
2021/11/16 00:59:10;;;;;;;29.87;19.90;;;6.30;99.90;;;;;;4949041;28;20246;-63
2021/11/16 01:01:38;;;;;;;29.47;20.27;;;6.30;99.90;;;;;;4950530;29;20276;-63
2021/11/16 01:04:07;;;;;;;31.63;20.80;;;6.30;99.90;;;;;;4948366;28;20542;-63
2021/11/16 01:06:35;;;;;;;30.90;20.30;;;6.30;99.90;;;;;;4949430;29;20247;-63
2021/11/16 01:09:03;;;;;;;30.67;20.10;;;6.30;99.90;;;;;;4949374;28;20246;-63
2021/11/16 01:11:31;;;;;;;30.70;20.53;;;6.30;99.90;;;;;;4949535;29;20330;-63
2021/11/16 01:14:01;;;;;;;29.20;20.07;;;6.30;99.90;;;;;;4948346;29;20254;-63
2021/11/16 01:16:29;;;;;;;29.53;20.20;;;6.20;99.90;;;;;;4944033;29;20227;-63
2021/11/16 01:18:59;;;;;;;29.63;19.33;;;6.10;99.90;;;;;;4948563;29;20242;-63
2021/11/16 01:21:27;;;;;;;30.03;20.40;;;6.10;99.90;;;;;;4949447;28;20646;-63
2021/11/16 01:23:55;;;;;;;30.57;21.03;;;6.10;99.90;;;;;;4948137;29;20482;-63
2021/11/16 01:26:23;;;;;;;29.77;20.17;;;6.10;99.90;;;;;;4948881;29;20573;-63
2021/11/16 01:28:51;;;;;;;30.93;20.87;;;6.10;99.90;;;;;;4948866;29;20248;-63
2021/11/16 01:31:21;;;;;;;29.70;21.47;;;6.00;99.90;;;;;;4948869;29;20246;-63
2021/11/16 01:33:54;;;;;;;29.73;19.47;;;6.00;99.90;;;;;;4943243;29;20560;-63
2021/11/16 01:36:23;;;;;;;30.30;20.50;;;6.00;99.90;;;;;;4948669;29;20326;-63
2021/11/16 01:38:55;;;;;;;27.57;19.33;;;6.10;99.90;;;;;;4946729;28;20490;-63
2021/11/16 01:41:24;;;;;;;28.73;19.90;;;6.10;99.90;;;;;;4949121;29;20485;-63
2021/11/16 01:43:53;;;;;;;27.00;19.50;;;6.10;99.90;;;;;;4943256;29;20501;-63
2021/11/16 01:46:22;;;;;;;28.47;19.53;;;6.00;99.90;;;;;;4948111;28;20927;-63
2021/11/16 01:48:54;;;;;;;27.37;19.47;;;6.10;99.90;;;;;;4948813;29;20282;-63
2021/11/16 01:51:25;;;;;;;28.87;20.27;;;6.10;99.90;;;;;;4948462;28;20801;-63
2021/11/16 01:54:01;;;;;;;30.33;20.37;;;6.10;99.90;;;;;;4947525;28;20235;-63
2021/11/16 01:56:30;;;;;;;29.20;21.03;;;6.10;99.90;;;;;;4941892;29;20268;-63
2021/11/16 01:58:59;;;;;;;29.13;20.77;;;6.10;99.90;;;;;;4947989;29;20321;-63
2021/11/16 02:01:32;;;;;;;30.23;20.57;;;6.20;99.90;;;;;;4941293;29;20230;-63
2021/11/16 02:04:02;;;;;;;26.87;19.43;;;6.20;99.90;;;;;;4947708;29;20243;-63
2021/11/16 02:06:35;;;;;;;28.53;19.80;;;6.20;99.90;;;;;;4941345;29;20246;-63
2021/11/16 02:09:06;;;;;;;28.37;19.83;;;6.20;99.90;;;;;;4948124;29;20643;-63
2021/11/16 02:11:35;;;;;;;27.07;19.40;;;6.20;99.90;;;;;;4948924;29;20242;-63
2021/11/16 02:14:07;;;;;;;27.30;19.90;;;6.20;99.90;;;;;;4947730;29;20242;-63
2021/11/16 02:16:37;;;;;;;28.17;20.00;;;6.20;99.90;;;;;;4948676;28;20508;-63
2021/11/16 02:19:07;;;;;;;30.43;20.77;;;6.20;99.90;;;;;;4948198;29;20722;-63
2021/11/16 02:21:37;;;;;;;29.20;20.73;;;6.10;99.90;;;;;;4948381;29;20366;-63
2021/11/16 02:24:07;;;;;;;30.63;20.73;;;6.10;99.90;;;;;;4947955;28;20650;-63
2021/11/16 02:26:37;;;;;;;86.40;22.20;;;6.10;99.90;;;;;;4948625;29;20235;-63
2021/11/16 02:29:06;;;;;;;26.63;18.70;;;6.10;99.90;;;;;;4948494;29;20790;-63
2021/11/16 02:31:34;;;;;;;29.80;19.83;;;6.10;99.90;;;;;;4948275;29;20262;-63
2021/11/16 02:34:03;;;;;;;28.17;19.13;;;6.10;99.90;;;;;;4946089;28;20483;-63
2021/11/16 02:36:33;;;;;;;31.03;20.67;;;6.10;99.90;;;;;;4941923;29;20695;-63
2021/11/16 02:39:05;;;;;;;30.20;20.57;;;6.10;99.90;;;;;;4947776;29;20246;-63
2021/11/16 02:41:34;;;;;;;29.00;19.63;;;6.10;99.90;;;;;;4947927;29;20554;-63
2021/11/16 02:44:05;;;;;;;25.50;19.10;;;6.10;99.90;;;;;;4946447;29;20290;-63
2021/11/16 02:46:34;;;;;;;28.97;18.97;;;6.10;99.90;;;;;;4946218;28;20614;-63
2021/11/16 02:49:04;;;;;;;27.90;18.93;;;6.10;99.90;;;;;;4948199;29;20235;-63
2021/11/16 02:51:34;;;;;;;25.53;19.50;;;6.20;99.90;;;;;;4946070;29;20308;-63
2021/11/16 02:54:11;;;;;;;28.43;19.53;;;6.20;99.90;;;;;;4947260;29;20242;-63
2021/11/16 02:56:41;;;;;;;28.40;19.57;;;6.20;99.90;;;;;;4944688;28;20301;-63
2021/11/16 02:59:09;;;;;;;29.90;19.80;;;6.10;99.90;;;;;;4947359;28;20257;-63
2021/11/16 03:01:38;;;;;;;26.83;18.50;;;6.10;99.90;;;;;;4947654;28;21025;-64
2021/11/16 03:04:07;;;;;;;26.70;19.03;;;6.20;99.90;;;;;;4944464;29;20246;-63
2021/11/16 03:06:36;;;;;;;30.23;19.43;;;6.10;99.90;;;;;;4948153;29;20891;-63
2021/11/16 03:09:05;;;;;;;28.07;19.27;;;6.10;99.90;;;;;;4946934;29;20990;-63
2021/11/16 03:11:34;;;;;;;27.67;18.87;;;6.10;99.90;;;;;;4947599;29;20502;-63
2021/11/16 03:14:02;;;;;;;28.07;20.07;;;6.10;99.90;;;;;;4943638;29;20715;-63
2021/11/16 03:16:33;;;;;;;29.50;19.23;;;6.10;99.90;;;;;;4946184;29;20924;-64
2021/11/16 03:19:01;;;;;;;28.70;19.10;;;6.20;99.90;;;;;;4946949;28;20475;-63
2021/11/16 03:21:29;;;;;;;30.67;20.63;;;6.10;99.90;;;;;;4944321;29;20441;-63
2021/11/16 03:23:58;;;;;;;29.83;20.37;;;6.10;99.90;;;;;;4946849;29;20235;-63
2021/11/16 03:26:29;;;;;;;28.17;19.73;;;6.00;99.90;;;;;;4947674;29;20318;-63
2021/11/16 03:29:00;;;;;;;27.97;19.70;;;6.00;99.90;;;;;;4947752;29;20647;-63
2021/11/16 03:31:37;;;;;;;31.00;20.67;;;6.00;99.90;;;;;;4937707;29;20475;-63
2021/11/16 03:34:05;;;;;;;30.10;20.27;;;6.00;99.90;;;;;;4947369;29;20937;-63
2021/11/16 03:36:33;;;;;;;26.50;19.57;;;6.00;99.90;;;;;;4947491;29;20249;-63
2021/11/16 03:39:04;;;;;;;29.43;19.80;;;6.00;99.90;;;;;;4947296;29;20558;-63
2021/11/16 03:41:33;;;;;;;26.63;19.43;;;6.00;99.90;;;;;;4944834;29;20247;-63
2021/11/16 03:44:02;;;;;;;31.83;20.73;;;6.10;99.90;;;;;;4946551;29;20708;-63
2021/11/16 03:46:30;;;;;;;25.87;19.57;;;6.00;99.90;;;;;;4946862;28;20643;-63
2021/11/16 03:48:58;;;;;;;27.47;19.13;;;6.00;99.90;;;;;;4950580;29;20263;-64
2021/11/16 03:51:26;;;;;;;28.20;19.57;;;6.00;99.90;;;;;;4950891;29;20250;-64
2021/11/16 03:53:54;;;;;;;30.20;20.40;;;5.90;99.90;;;;;;4949762;29;20247;-63
2021/11/16 03:56:23;;;;;;;30.23;20.33;;;5.90;99.90;;;;;;4951003;29;20963;-64
2021/11/16 03:58:52;;;;;;;28.87;19.90;;;6.00;99.90;;;;;;4949841;29;20478;-63
2021/11/16 04:01:21;;;;;;;30.37;20.00;;;6.00;99.90;;;;;;4950361;29;20250;-63
2021/11/16 04:03:49;;;;;;;27.70;18.60;;;6.00;99.90;;;;;;4949448;28;20537;-63
2021/11/16 04:06:19;;;;;;;25.47;18.20;;;5.90;99.90;;;;;;4950403;29;20769;-63
2021/11/16 04:08:47;;;;;;;27.27;19.10;;;6.00;99.90;;;;;;4950752;29;20766;-64
2021/11/16 04:11:15;;;;;;;27.60;19.30;;;5.90;99.90;;;;;;4950717;29;21005;-63
2021/11/16 04:13:44;;;;;;;28.63;20.00;;;5.80;99.90;;;;;;4949335;28;20245;-66
2021/11/16 04:16:14;;;;;;;26.93;19.33;;;5.90;99.90;;;;;;4950112;29;21046;-63
2021/11/16 04:18:43;;;;;;;27.20;19.83;;;5.90;99.90;;;;;;4949793;29;20270;-63
2021/11/16 04:21:11;;;;;;;27.93;19.63;;;6.00;99.90;;;;;;4950119;29;20290;-63
2021/11/16 04:23:39;;;;;;;25.70;18.60;;;6.00;99.90;;;;;;4949470;29;21409;-63
2021/11/16 04:26:09;;;;;;;27.80;18.73;;;6.00;99.90;;;;;;4950360;29;20726;-63
2021/11/16 04:28:38;;;;;;;28.10;20.00;;;6.00;99.90;;;;;;4949087;29;20255;-63
2021/11/16 04:31:06;;;;;;;28.10;19.77;;;6.00;99.90;;;;;;4949803;28;20274;-63
2021/11/16 04:33:38;;;;;;;27.13;19.43;;;6.00;99.90;;;;;;4946999;29;20474;-63
2021/11/16 04:36:06;;;;;;;31.07;19.97;;;6.00;99.90;;;;;;4949406;29;20642;-63
2021/11/16 04:38:34;;;;;;;29.23;20.63;;;6.00;99.90;;;;;;4948618;29;20238;-63
2021/11/16 04:41:03;;;;;;;26.87;19.37;;;6.10;99.90;;;;;;4948844;28;20245;-63
2021/11/16 04:43:32;;;;;;;27.80;18.97;;;6.10;99.90;;;;;;4947255;29;20330;-63
2021/11/16 04:46:05;;;;;;;26.47;19.03;;;6.10;99.90;;;;;;4948593;28;20435;-63
2021/11/16 04:48:50;;;;;;;30.60;20.23;;;6.30;99.90;;;;;;4947708;29;20273;-63
2021/11/16 05:02:38;;;;;;;28.23;20.23;;;6.10;99.90;;;;;;4946808;29;20235;-63
2021/11/16 05:05:11;;;;;;;28.73;19.70;;;6.20;99.90;;;;;;4946485;29;20677;-64
2021/11/16 05:07:43;;;;;;;30.70;19.73;;;6.20;99.90;;;;;;4948442;28;20236;-63
2021/11/16 05:10:12;;;;;;;29.30;18.70;;;6.20;99.90;;;;;;4946415;29;20274;-63
2021/11/16 05:12:40;;;;;;;30.23;20.50;;;6.30;99.90;;;;;;4948017;28;20228;-63
2021/11/16 05:15:14;;;;;;;28.47;20.00;;;6.20;99.90;;;;;;4945676;28;20235;-63
2021/11/16 05:17:43;;;;;;;30.23;19.73;;;6.30;99.90;;;;;;4946972;28;20728;-63
2021/11/16 05:20:12;;;;;;;29.10;20.53;;;6.30;99.90;;;;;;4948723;29;20235;-63
2021/11/16 05:22:42;;;;;;;28.83;20.13;;;6.20;99.90;;;;;;4945265;29;20253;-63
2021/11/16 05:25:11;;;;;;;28.73;19.80;;;6.40;99.90;;;;;;4946264;29;20648;-63
2021/11/16 05:27:40;;;;;;;30.07;20.70;;;6.60;99.90;;;;;;4946685;28;20608;-63
2021/11/16 05:30:11;;;;;;;27.43;20.37;;;6.50;99.90;;;;;;4947856;28;20734;-63
2021/11/16 05:32:41;;;;;;;28.20;19.90;;;6.40;99.90;;;;;;4949066;29;20250;-63
2021/11/16 05:35:12;;;;;;;26.57;18.37;;;6.30;99.90;;;;;;4946318;28;20246;-64
2021/11/16 05:37:42;;;;;;;28.13;19.77;;;6.10;99.90;;;;;;4942319;29;20273;-63
2021/11/16 05:40:11;;;;;;;30.73;20.70;;;6.30;99.90;;;;;;4947113;29;20235;-63
2021/11/16 05:42:39;;;;;;;30.30;20.20;;;6.20;99.90;;;;;;4948184;29;20270;-63
2021/11/16 05:45:08;;;;;;;33.03;21.83;;;6.40;99.90;;;;;;4948652;29;20318;-63
2021/11/16 05:47:38;;;;;;;31.23;20.60;;;6.40;99.90;;;;;;4946717;28;20235;-63
2021/11/16 05:50:08;;;;;;;31.67;20.03;;;6.30;99.90;;;;;;4945343;29;20255;-63
2021/11/16 05:52:38;;;;;;;30.73;20.97;;;6.50;99.90;;;;;;4937801;28;20338;-63
2021/11/16 05:55:09;;;;;;;28.40;19.27;;;6.40;99.90;;;;;;4941283;29;20281;-63
2021/11/16 05:57:38;;;;;;;28.50;20.27;;;6.40;99.90;;;;;;4940533;29;20253;-63
2021/11/16 06:00:09;;;;;;;32.87;21.27;;;6.30;99.90;;;;;;4940139;29;20313;-63
2021/11/16 06:02:37;;;;;;;32.33;22.00;;;6.40;99.90;;;;;;4947668;29;20245;-64
2021/11/16 06:05:06;;;;;;;34.87;21.57;;;6.60;99.90;;;;;;4947105;29;20227;-63
2021/11/16 06:07:35;;;;;;;31.53;21.07;;;6.60;99.90;;;;;;4932830;28;20708;-63
2021/11/16 06:10:05;;;;;;;29.20;21.13;;;6.50;99.90;;;;;;4937038;28;20246;-63
2021/11/16 06:12:34;;;;;;;31.53;19.67;;;6.40;99.90;;;;;;4937425;28;20227;-63
2021/11/16 06:15:04;;;;;;;30.17;20.60;;;6.70;99.90;;;;;;4937443;28;20370;-63
2021/11/16 06:17:32;;;;;;;31.10;20.77;;;6.70;99.90;;;;;;4936717;28;20767;-63
2021/11/16 06:20:02;;;;;;;29.40;19.83;;;6.60;99.90;;;;;;4938312;28;20278;-63
2021/11/16 06:22:30;;;;;;;30.80;21.07;;;6.70;99.90;;;;;;4938606;28;20403;-63
2021/11/16 06:24:58;;;;;;;27.93;20.50;;;6.70;99.90;;;;;;4938748;28;20599;-63
2021/11/16 06:27:28;;;;;;;33.77;21.70;;;6.70;99.90;;;;;;4935329;28;20813;-63
2021/11/16 06:29:56;;;;;;;32.47;20.67;;;6.50;99.90;;;;;;4939350;28;20239;-64
2021/11/16 06:32:24;;;;;;;30.73;22.07;;;6.50;99.90;;;;;;4938179;28;20324;-63
2021/11/16 06:34:53;;;;;;;28.57;19.57;;;6.40;99.90;;;;;;4939060;28;20238;-63
2021/11/16 06:37:21;;;;;;;29.87;20.57;;;6.30;99.90;;;;;;4936788;28;21624;-63
2021/11/16 06:39:49;;;;;;;29.20;20.27;;;6.30;99.90;;;;;;4939403;28;20297;-63
2021/11/16 06:42:17;;;;;;;29.70;21.13;;;6.30;99.90;;;;;;4940127;28;20231;-63
2021/11/16 06:44:48;;;;;;;29.07;19.30;;;6.30;99.90;;;;;;4938760;28;20505;-63
2021/11/16 06:47:17;;;;;;;31.60;20.90;;;6.40;99.90;;;;;;4934585;28;20657;-63
2021/11/16 06:49:48;;;;;;;30.80;21.60;;;6.30;99.90;;;;;;4930814;29;20246;-63
2021/11/16 06:52:17;;;;;;;30.73;21.33;;;6.30;99.90;;;;;;4928691;29;20708;-63
2021/11/16 06:54:46;;;;;;;31.20;22.00;;;6.30;99.90;;;;;;4928761;29;21423;-63
2021/11/16 06:57:14;;;;;;;31.07;20.80;;;6.20;99.90;;;;;;4926103;29;20641;-63
2021/11/16 06:59:43;;;;;;;33.73;22.30;;;6.20;99.90;;;;;;4928314;29;20713;-63
2021/11/16 07:02:13;;;;;;;33.77;22.27;;;6.20;99.90;;;;;;4937806;28;20483;-63
2021/11/16 07:04:42;;;;;;;33.57;21.97;;;6.20;99.90;;;;;;4939164;29;20243;-63
2021/11/16 07:07:11;;;;;;;30.07;22.20;;;6.20;99.90;;;;;;4944180;28;20235;-63
2021/11/16 07:09:41;;;;;;;34.37;23.10;;;6.10;99.90;;;;;;4945298;29;20238;-63
2021/11/16 07:12:11;;;;;;;34.70;22.60;;;6.10;99.90;;;;;;4946341;29;20251;-63
2021/11/16 07:14:40;;;;;;;33.70;22.80;;;6.10;99.90;;;;;;4945917;29;20508;-63
2021/11/16 07:17:09;;;;;;;31.80;22.30;;;6.10;99.90;;;;;;4945623;29;20310;-63
2021/11/16 07:19:41;;;;;;;33.23;22.70;;;6.10;99.90;;;;;;4946127;28;20243;-63
2021/11/16 07:22:12;;;;;;;34.10;22.00;;;6.10;99.90;;;;;;4949581;28;20245;-63
2021/11/16 07:24:47;;;;;;;32.83;22.57;;;6.00;99.90;;;;;;4948663;28;20239;-63
2021/11/16 07:27:17;;;;;;;33.97;23.60;;;6.00;99.90;;;;;;4949390;29;20647;-63
2021/11/16 07:29:48;;;;;;;33.60;22.73;;;6.00;99.90;;;;;;4944274;29;20325;-63
2021/11/16 07:32:19;;;;;;;34.47;22.63;;;6.10;99.90;;;;;;4949763;29;20317;-63
2021/11/16 07:34:50;;;;;;;33.77;22.90;;;6.10;99.90;;;;;;4949302;29;20242;-63
2021/11/16 07:37:20;;;;;;;34.30;22.67;;;6.10;99.90;;;;;;4949315;28;20754;-63
2021/11/16 07:39:51;;;;;;;34.67;22.87;;;6.10;99.90;;;;;;4949785;29;20239;-63
2021/11/16 07:42:23;;;;;;;34.77;23.87;;;6.10;99.90;;;;;;4948875;28;20254;-63
2021/11/16 07:45:10;;;;;;;37.70;24.23;;;6.10;99.90;;;;;;4949338;29;20660;-63
2021/11/16 07:47:48;;;;;;;35.47;22.17;;;6.10;99.90;;;;;;4947681;28;20302;-63
2021/11/16 07:50:36;;;;;;;34.53;24.20;;;6.10;99.90;;;;;;4949196;28;20317;-63
2021/11/16 07:53:22;;;;;;;35.13;23.57;;;6.20;99.90;;;;;;4949287;28;20668;-63
2021/11/16 07:56:01;;;;;;;33.90;23.57;;;6.20;99.90;;;;;;4948998;29;20322;-63
2021/11/16 07:58:33;;;;;;;33.17;22.67;;;6.20;99.90;;;;;;4941400;29;20238;-64
2021/11/16 08:01:05;;;;;;;35.60;24.30;;;6.20;99.90;;;;;;4948702;28;20305;-63
2021/11/16 08:03:41;;;;;;;34.57;23.10;;;6.10;99.90;;;;;;4944006;29;20259;-63
2021/11/16 08:06:16;;;;;;;34.23;23.17;;;6.10;99.90;;;;;;4948368;28;20313;-63
2021/11/16 08:09:05;;;;;;;35.10;23.57;;;6.10;99.90;;;;;;4948849;28;20333;-63
2021/11/16 08:11:38;;;;;;;35.43;22.80;;;6.20;99.90;;;;;;4948155;29;20286;-63
2021/11/16 08:14:12;;;;;;;36.33;24.27;;;6.10;99.90;;;;;;4948864;29;20329;-63
2021/11/16 08:16:55;;;;;;;35.40;23.67;;;6.10;99.90;;;;;;4948508;29;20231;-66
2021/11/16 08:19:26;;;;;;;36.13;23.90;;;6.00;99.90;;;;;;4948969;29;20253;-66
2021/11/16 08:21:57;;;;;;;34.10;23.67;;;6.10;99.90;;;;;;4941304;28;20251;-63
2021/11/16 08:24:28;;;;;;;37.50;24.50;;;6.00;99.90;;;;;;4947235;29;20560;-63
2021/11/16 08:26:57;;;;;;;35.97;22.93;;;6.10;99.90;;;;;;4948634;28;20243;-63
2021/11/16 08:29:28;;;;;;;34.97;23.17;;;6.00;99.90;;;;;;4948429;29;20693;-63
2021/11/16 08:32:04;;;;;;;36.80;23.77;;;6.00;99.90;;;;;;4947995;28;20504;-63
2021/11/16 08:34:33;;;;;;;32.77;22.77;;;6.00;99.90;;;;;;4947254;29;20297;-63
2021/11/16 08:37:06;;;;;;;35.53;24.00;;;6.00;99.90;;;;;;4948419;28;20245;-63
2021/11/16 08:39:38;;;;;;;36.60;23.83;;;6.00;99.90;;;;;;4948185;29;20733;-63
2021/11/16 08:42:16;;;;;;;40.47;24.93;;;6.00;99.90;;;;;;4949219;28;20239;-63
2021/11/16 08:44:52;;;;;;;38.43;25.13;;;5.90;99.90;;;;;;4946387;29;20263;-63
2021/11/16 08:47:22;;;;;;;40.07;26.20;;;6.00;99.90;;;;;;4948849;28;20651;-63
2021/11/16 08:49:50;;;;;;;37.73;24.83;;;6.00;99.90;;;;;;4950316;29;20618;-63
2021/11/16 08:52:20;;;;;;;39.07;25.60;;;6.00;99.90;;;;;;4949259;29;20334;-63
2021/11/16 08:55:01;;;;;;;41.73;25.80;;;6.00;99.90;;;;;;4949128;29;20266;-63
2021/11/16 08:57:32;;;;;;;36.33;24.83;;;6.10;99.90;;;;;;4948865;28;20242;-63
2021/11/16 09:00:00;;;;;;;40.13;26.17;;;6.10;99.90;;;;;;4946488;28;20338;-63
2021/11/16 09:02:30;;;;;;;38.93;26.80;;;6.10;99.90;;;;;;4940782;29;20302;-64
2021/11/16 09:05:09;;;;;;;40.13;26.20;;;6.20;99.90;;;;;;4939796;29;20242;-63
2021/11/16 09:07:50;;;;;;;39.73;25.37;;;6.10;99.90;;;;;;4940213;29;21101;-63
2021/11/16 09:10:19;;;;;;;42.03;26.47;;;6.20;99.90;;;;;;4943101;29;20822;-63
2021/11/16 09:12:51;;;;;;;43.07;27.60;;;6.20;99.90;;;;;;4943976;29;20792;-63
2021/11/16 09:15:32;;;;;;;38.87;25.87;;;6.10;99.90;;;;;;4943366;29;20247;-63
2021/11/16 09:18:11;;;;;;;39.43;27.13;;;6.10;99.90;;;;;;4939696;28;20242;-63
2021/11/16 09:20:40;;;;;;;39.10;25.73;;;6.20;99.90;;;;;;4942098;29;20267;-63
2021/11/16 09:23:19;;;;;;;38.83;26.30;;;6.30;99.90;;;;;;4942523;29;20266;-63
2021/11/16 09:25:51;;;;;;;38.20;26.47;;;6.30;99.90;;;;;;4940634;29;20726;-63
2021/11/16 09:28:34;;;;;;;39.20;26.53;;;6.30;99.90;;;;;;4943273;29;20799;-63
2021/11/16 09:31:16;;;;;;;41.90;26.90;;;6.20;99.90;;;;;;4944045;29;20713;-63
2021/11/16 09:33:44;;;;;;;38.00;24.93;;;6.20;99.90;;;;;;4942886;29;20759;-63
2021/11/16 09:36:21;;;;;;;41.50;27.53;;;6.30;99.90;;;;;;4943366;29;20262;-63
2021/11/16 09:38:54;;;;;;;37.57;24.67;;;6.30;99.90;;;;;;4943420;29;20294;-63
2021/11/16 09:41:31;;;;;;;39.70;26.80;;;6.30;99.90;;;;;;4943667;29;20238;-63
2021/11/16 09:44:03;;;;;;;37.43;26.67;;;6.30;99.90;;;;;;4940621;28;20332;-64
2021/11/16 09:46:42;;;;;;;40.67;26.50;;;6.30;99.90;;;;;;4942938;28;20514;-63
2021/11/16 09:49:13;;;;;;;40.53;26.67;;;6.20;99.90;;;;;;4940811;29;20266;-63
2021/11/16 09:51:42;;;;;;;39.67;25.73;;;6.20;99.90;;;;;;4943220;29;20519;-63
2021/11/16 09:54:12;;;;;;;39.10;26.07;;;6.20;99.90;;;;;;4942591;29;20254;-63
2021/11/16 09:56:40;;;;;;;40.30;26.30;;;6.20;99.90;;;;;;4942517;29;20475;-61
2021/11/16 09:59:12;;;;;;;41.30;27.57;;;6.10;99.90;;;;;;4942661;29;20569;-63
2021/11/16 10:01:41;;;;;;;43.00;27.63;;;6.20;99.90;;;;;;4942166;29;20247;-63
2021/11/16 10:04:16;;;;;;;40.43;27.33;;;6.20;99.90;;;;;;4941171;29;20258;-63
2021/11/16 10:06:45;;;;;;;41.80;26.60;;;6.20;99.90;;;;;;4941475;29;20325;-63
2021/11/16 10:09:15;;;;;;;36.50;25.37;;;6.20;99.90;;;;;;4941658;29;20254;-63
2021/11/16 10:11:44;;;;;;;40.50;26.30;;;6.20;99.90;;;;;;4941926;29;20274;-63
2021/11/16 10:14:16;;;;;;;38.90;26.00;;;6.20;99.90;;;;;;4941192;29;20239;-63
2021/11/16 10:16:47;;;;;;;40.77;26.73;;;6.10;99.90;;;;;;4941660;29;20262;-63
2021/11/16 10:19:35;;;;;;;41.17;26.07;;;6.20;99.90;;;;;;4941076;29;20762;-63
2021/11/16 10:22:11;;;;;;;40.10;26.20;;;6.30;99.90;;;;;;4923884;29;20251;-63
2021/11/16 10:24:41;;;;;;;40.30;26.37;;;6.30;99.90;;;;;;4940515;29;20246;-63
2021/11/16 10:27:34;;;;;;;44.73;28.23;;;6.30;99.90;;;;;;4938793;29;20297;-63
2021/11/16 10:30:18;;;;;;;43.17;26.90;;;6.30;99.90;;;;;;4938212;29;20239;-63
2021/11/16 10:33:05;;;;;;;47.10;29.23;;;6.20;99.90;;;;;;4935407;29;20997;-63
2021/11/16 10:35:33;;;;;;;41.43;27.17;;;6.20;99.90;;;;;;4940300;29;20298;-63
2021/11/16 10:38:04;;;;;;;38.13;26.87;;;6.10;99.90;;;;;;4940794;28;20783;-63
2021/11/16 10:40:34;;;;;;;43.87;27.27;;;6.10;99.90;;;;;;4937801;29;20576;-63
2021/11/16 10:43:03;;;;;;;44.63;28.83;;;6.10;99.90;;;;;;4940197;28;20239;-63
2021/11/16 10:45:33;;;;;;;43.97;28.57;;;6.10;99.90;;;;;;4934723;29;20601;-63
2021/11/16 10:48:04;;;;;;;43.10;28.47;;;6.10;99.90;;;;;;4940883;28;20243;-63
2021/11/16 10:50:34;;;;;;;43.00;28.53;;;6.20;99.90;;;;;;4936903;29;20257;-63
2021/11/16 10:53:05;;;;;;;42.87;28.83;;;6.30;99.90;;;;;;4940964;29;20790;-63
2021/11/16 10:55:37;;;;;;;45.03;28.27;;;6.30;99.90;;;;;;4938529;28;20788;-63
2021/11/16 10:58:08;;;;;;;41.90;27.87;;;6.20;99.90;;;;;;4944558;29;20247;-63
2021/11/16 11:00:41;;;;;;;46.93;29.20;;;6.20;99.90;;;;;;4946422;28;20749;-63
2021/11/16 11:03:17;;;;;;;44.10;29.33;;;6.30;99.90;;;;;;4944975;28;20258;-63
2021/11/16 11:05:47;;;;;;;42.10;29.07;;;6.30;99.90;;;;;;4943899;29;20632;-63
2021/11/16 11:08:30;;;;;;;44.63;29.30;;;6.30;99.90;;;;;;4944786;29;20239;-63
2021/11/16 11:11:01;;;;;;;43.13;28.17;;;6.30;99.90;;;;;;4944756;29;20262;-63
2021/11/16 11:13:31;;;;;;;39.80;27.97;;;6.30;99.90;;;;;;4938530;29;20239;-63
2021/11/16 11:16:00;;;;;;;41.43;27.83;;;6.30;99.90;;;;;;4942271;29;20918;-63
2021/11/16 11:18:34;;;;;;;40.37;27.27;;;6.40;99.90;;;;;;4936683;29;20325;-63
2021/11/16 11:21:05;;;;;;;41.80;28.30;;;6.40;99.90;;;;;;4926430;29;20368;-63
2021/11/16 11:23:40;;;;;;;43.03;28.50;;;6.40;99.90;;;;;;4936471;29;20274;-63
2021/11/16 11:26:22;;;;;;;42.23;28.63;;;6.40;99.90;;;;;;4942810;29;20348;-63
2021/11/16 11:29:14;;;;;;;42.40;27.63;;;6.40;99.90;;;;;;4943320;29;20731;-63
2021/11/16 11:31:43;;;;;;;42.17;27.83;;;6.40;99.90;;;;;;4943700;29;20235;-63
2021/11/16 11:34:13;;;;;;;43.50;28.77;;;6.40;99.90;;;;;;4945687;28;20255;-63
2021/11/16 11:36:42;;;;;;;39.17;27.13;;;6.30;99.90;;;;;;4943775;28;20242;-63
2021/11/16 11:39:19;;;;;;;42.30;27.73;;;6.30;99.90;;;;;;4945585;29;20301;-63
2021/11/16 11:41:52;;;;;;;41.27;26.23;;;6.30;99.90;;;;;;4942646;29;20242;-63
2021/11/16 11:44:20;;;;;;;46.47;29.47;;;6.30;99.90;;;;;;4931693;29;20283;-63
2021/11/16 11:46:53;;;;;;;43.43;28.47;;;6.40;99.90;;;;;;4933038;28;20281;-63
2021/11/16 11:49:22;;;;;;;48.30;29.93;;;6.40;99.90;;;;;;4933102;29;20258;-63
2021/11/16 11:51:51;;;;;;;47.87;30.03;;;6.40;99.90;;;;;;4933205;29;20266;-63
2021/11/16 11:54:19;;;;;;;43.93;28.43;;;6.40;99.90;;;;;;4931118;29;20270;-63
2021/11/16 11:56:50;;;;;;;44.97;30.27;;;6.40;99.90;;;;;;4933824;29;20254;-63
2021/11/16 11:59:20;;;;;;;42.43;28.07;;;6.40;99.90;;;;;;4934065;29;20624;-63
2021/11/16 12:01:48;;;;;;;45.60;29.27;;;6.30;99.90;;;;;;4933758;29;20235;-63
2021/11/16 12:04:19;;;;;;;46.07;30.67;;;6.40;99.90;;;;;;4931372;28;20239;-63
2021/11/16 12:06:49;;;;;;;45.90;29.63;;;6.30;99.90;;;;;;4932777;28;20695;-63
2021/11/16 12:09:18;;;;;;;55.20;34.17;;;6.40;99.90;;;;;;4933445;29;20240;-63
2021/11/16 12:11:47;;;;;;;50.53;33.57;;;6.40;99.90;;;;;;4938513;29;20272;-63
2021/11/16 12:14:38;;;;;;;51.00;31.90;;;6.30;99.90;;;;;;4941646;29;20338;-63
2021/11/16 12:17:13;;;;;;;46.20;28.90;;;6.40;99.90;;;;;;4934020;29;20334;-63
2021/11/16 12:19:48;;;;;;;46.60;30.23;;;6.40;99.90;;;;;;4932955;29;20234;-63
2021/11/16 12:22:24;;;;;;;45.70;28.57;;;6.40;99.90;;;;;;4931108;29;20726;-63
2021/11/16 12:24:55;;;;;;;47.17;29.63;;;6.40;99.90;;;;;;4933098;29;20321;-63
2021/11/16 12:27:31;;;;;;;48.40;29.97;;;6.40;99.90;;;;;;4932683;29;20318;-63
2021/11/16 12:30:02;;;;;;;49.63;29.57;;;6.40;99.90;;;;;;4938105;29;20301;-63
2021/11/16 12:32:33;;;;;;;47.90;29.00;;;6.40;99.90;;;;;;4938972;29;20330;-63
2021/11/16 12:35:14;;;;;;;47.50;29.27;;;6.40;99.90;;;;;;4931426;29;20652;-63
2021/11/16 12:37:46;;;;;;;48.93;30.93;;;6.30;99.90;;;;;;4926530;29;21038;-63
2021/11/16 12:40:22;;;;;;;48.23;30.00;;;6.30;99.90;;;;;;4943290;29;20235;-63
2021/11/16 12:43:20;;;;;;;44.73;27.50;;;6.40;99.90;;;;;;4942622;28;20238;-63
2021/11/16 12:45:52;;;;;;;48.80;29.40;;;6.40;99.90;;;;;;4928213;28;20470;-63
2021/11/16 12:48:39;;;;;;;52.73;31.37;;;6.40;99.90;;;;;;4940026;28;20645;-63
2021/11/16 12:51:12;;;;;;;52.20;29.37;;;6.40;99.90;;;;;;4924493;29;20366;-63
2021/11/16 12:53:56;;;;;;;48.10;28.93;;;6.40;99.90;;;;;;4925696;29;21182;-63
2021/11/16 12:56:46;;;;;;;51.30;31.03;;;6.40;99.90;;;;;;4923404;29;20290;-63
2021/11/16 12:59:18;;;;;;;49.03;29.30;;;6.40;99.90;;;;;;4926059;29;20692;-63
2021/11/16 13:01:50;;;;;;;47.40;29.40;;;6.40;99.90;;;;;;4925813;29;20243;-63
2021/11/16 13:04:40;;;;;;;51.27;30.43;;;6.30;99.90;;;;;;4926654;28;20243;-63
2021/11/16 13:07:19;;;;;;;48.57;29.20;;;6.40;99.90;;;;;;4925878;29;20239;-63
2021/11/16 13:09:49;;;;;;;50.57;30.63;;;6.30;99.90;;;;;;4926831;29;20279;-63